sensor_id;sensor_type;location;lat;lon;timestamp;pressure;altitude;pressure_sealevel;temperature;humidity
51468;BME280;37545;45.302;-122.946;2022-12-13T00:01:44;101276.81;;;9.76;77.97
51468;BME280;37545;45.302;-122.946;2022-12-13T00:04:23;101277.75;;;9.78;78.96
51468;BME280;37545;45.302;-122.946;2022-12-13T00:06:51;101276.91;;;9.79;81.42
51468;BME280;37545;45.302;-122.946;2022-12-13T00:09:21;101279.31;;;9.75;82.63
51468;BME280;37545;45.302;-122.946;2022-12-13T00:11:50;101289.38;;;9.69;80.08
51468;BME280;37545;45.302;-122.946;2022-12-13T00:14:20;101281.53;;;9.65;80.41
51468;BME280;37545;45.302;-122.946;2022-12-13T00:16:49;101278.84;;;9.64;82.34
51468;BME280;37545;45.302;-122.946;2022-12-13T00:19:17;101279.81;;;9.66;81.92
51468;BME280;37545;45.302;-122.946;2022-12-13T00:21:48;101277.28;;;9.68;81.21
51468;BME280;37545;45.302;-122.946;2022-12-13T00:24:29;101277.38;;;9.69;81.08
51468;BME280;37545;45.302;-122.946;2022-12-13T00:26:58;101271.38;;;9.70;81.05
51468;BME280;37545;45.302;-122.946;2022-12-13T00:29:26;101277.38;;;9.69;80.88
51468;BME280;37545;45.302;-122.946;2022-12-13T00:31:55;101278.16;;;9.68;81.11
51468;BME280;37545;45.302;-122.946;2022-12-13T00:34:24;101278.06;;;9.65;80.18
51468;BME280;37545;45.302;-122.946;2022-12-13T00:36:55;101282.00;;;9.57;80.91
51468;BME280;37545;45.302;-122.946;2022-12-13T00:39:24;101288.25;;;9.62;81.09
51468;BME280;37545;45.302;-122.946;2022-12-13T00:41:53;101293.97;;;9.55;80.62
51468;BME280;37545;45.302;-122.946;2022-12-13T00:44:21;101296.06;;;9.42;80.55
51468;BME280;37545;45.302;-122.946;2022-12-13T00:46:50;101282.28;;;9.22;80.74
51468;BME280;37545;45.302;-122.946;2022-12-13T00:49:19;101292.41;;;9.18;82.38
51468;BME280;37545;45.302;-122.946;2022-12-13T00:51:48;101297.16;;;9.09;83.39
51468;BME280;37545;45.302;-122.946;2022-12-13T00:54:18;101299.41;;;9.01;85.61
51468;BME280;37545;45.302;-122.946;2022-12-13T00:56:46;101304.25;;;8.93;84.73
51468;BME280;37545;45.302;-122.946;2022-12-13T00:59:16;101298.78;;;8.87;85.17
51468;BME280;37545;45.302;-122.946;2022-12-13T01:01:45;101317.53;;;8.83;85.23
51468;BME280;37545;45.302;-122.946;2022-12-13T01:04:13;101308.84;;;8.81;86.39
51468;BME280;37545;45.302;-122.946;2022-12-13T01:06:44;101309.78;;;8.83;86.93
51468;BME280;37545;45.302;-122.946;2022-12-13T01:09:19;101309.03;;;8.86;87.18
51468;BME280;37545;45.302;-122.946;2022-12-13T01:11:48;101311.69;;;8.87;87.16
51468;BME280;37545;45.302;-122.946;2022-12-13T01:14:18;101319.44;;;8.87;86.93
51468;BME280;37545;45.302;-122.946;2022-12-13T01:16:46;101317.66;;;8.86;86.45
51468;BME280;37545;45.302;-122.946;2022-12-13T01:19:15;101319.03;;;8.78;86.23
51468;BME280;37545;45.302;-122.946;2022-12-13T01:21:44;101312.91;;;8.76;86.92
51468;BME280;37545;45.302;-122.946;2022-12-13T01:24:13;101316.38;;;8.76;87.51
51468;BME280;37545;45.302;-122.946;2022-12-13T01:26:47;101319.81;;;8.77;87.25
51468;BME280;37545;45.302;-122.946;2022-12-13T01:29:15;101320.78;;;8.79;87.55
51468;BME280;37545;45.302;-122.946;2022-12-13T01:31:44;101321.75;;;8.81;87.81
51468;BME280;37545;45.302;-122.946;2022-12-13T01:34:14;101327.72;;;8.80;87.05
51468;BME280;37545;45.302;-122.946;2022-12-13T01:36:45;101321.53;;;8.76;87.17
51468;BME280;37545;45.302;-122.946;2022-12-13T01:39:16;101325.94;;;8.79;87.44
51468;BME280;37545;45.302;-122.946;2022-12-13T01:41:48;101341.28;;;8.76;87.67
51468;BME280;37545;45.302;-122.946;2022-12-13T01:47:27;101346.31;;;8.73;87.63
51468;BME280;37545;45.302;-122.946;2022-12-13T01:50:04;101349.69;;;8.72;88.64
51468;BME280;37545;45.302;-122.946;2022-12-13T01:52:34;101350.34;;;8.68;88.40
51468;BME280;37545;45.302;-122.946;2022-12-13T01:55:04;101353.69;;;8.65;88.22
51468;BME280;37545;45.302;-122.946;2022-12-13T01:57:37;101353.63;;;8.64;89.66
51468;BME280;37545;45.302;-122.946;2022-12-13T02:00:08;101355.31;;;8.63;90.91
51468;BME280;37545;45.302;-122.946;2022-12-13T02:02:38;101358.78;;;8.64;90.40
51468;BME280;37545;45.302;-122.946;2022-12-13T02:05:09;101354.44;;;8.63;90.26
51468;BME280;37545;45.302;-122.946;2022-12-13T02:07:41;101345.28;;;8.51;89.71
51468;BME280;37545;45.302;-122.946;2022-12-13T02:10:11;101353.03;;;8.51;91.71
51468;BME280;37545;45.302;-122.946;2022-12-13T02:12:41;101351.94;;;8.46;94.43
51468;BME280;37545;45.302;-122.946;2022-12-13T02:15:12;101353.09;;;8.35;91.83
51468;BME280;37545;45.302;-122.946;2022-12-13T02:18:02;101356.06;;;8.25;92.93
51468;BME280;37545;45.302;-122.946;2022-12-13T02:32:56;101369.28;;;8.14;92.16
51468;BME280;37545;45.302;-122.946;2022-12-13T02:35:36;101371.06;;;8.15;91.98
51468;BME280;37545;45.302;-122.946;2022-12-13T02:38:12;101372.81;;;8.16;92.24
51468;BME280;37545;45.302;-122.946;2022-12-13T02:40:46;101377.09;;;8.16;93.33
51468;BME280;37545;45.302;-122.946;2022-12-13T02:43:21;101377.16;;;8.17;92.74
51468;BME280;37545;45.302;-122.946;2022-12-13T02:45:52;101386.53;;;8.15;93.22
51468;BME280;37545;45.302;-122.946;2022-12-13T02:48:26;101383.88;;;8.14;92.74
51468;BME280;37545;45.302;-122.946;2022-12-13T02:50:58;101378.81;;;8.15;93.50
51468;BME280;37545;45.302;-122.946;2022-12-13T02:53:29;101381.94;;;8.10;94.45
51468;BME280;37545;45.302;-122.946;2022-12-13T02:55:58;101388.72;;;8.08;94.41
51468;BME280;37545;45.302;-122.946;2022-12-13T02:58:29;101394.59;;;8.05;95.38
51468;BME280;37545;45.302;-122.946;2022-12-13T03:01:10;101390.91;;;8.00;95.24
51468;BME280;37545;45.302;-122.946;2022-12-13T03:03:47;101400.19;;;7.96;97.34
51468;BME280;37545;45.302;-122.946;2022-12-13T03:06:28;101405.28;;;7.95;97.93
51468;BME280;37545;45.302;-122.946;2022-12-13T03:09:13;101407.91;;;7.96;97.77
51468;BME280;37545;45.302;-122.946;2022-12-13T03:12:04;101413.16;;;7.98;97.53
51468;BME280;37545;45.302;-122.946;2022-12-13T03:14:57;101414.75;;;7.96;99.51
51468;BME280;37545;45.302;-122.946;2022-12-13T03:17:33;101413.16;;;7.98;98.10
51468;BME280;37545;45.302;-122.946;2022-12-13T03:20:07;101409.59;;;7.96;97.26
51468;BME280;37545;45.302;-122.946;2022-12-13T03:22:36;101411.22;;;7.94;96.66
51468;BME280;37545;45.302;-122.946;2022-12-13T03:25:05;101416.38;;;7.94;96.83
51468;BME280;37545;45.302;-122.946;2022-12-13T03:27:34;101413.00;;;7.95;96.98
51468;BME280;37545;45.302;-122.946;2022-12-13T03:30:03;101413.00;;;7.95;97.60
51468;BME280;37545;45.302;-122.946;2022-12-13T03:32:32;101412.53;;;7.86;97.85
51468;BME280;37545;45.302;-122.946;2022-12-13T03:35:00;101419.84;;;7.78;98.57
51468;BME280;37545;45.302;-122.946;2022-12-13T03:37:31;101426.56;;;7.74;99.01
51468;BME280;37545;45.302;-122.946;2022-12-13T03:39:59;101423.97;;;7.74;99.39
51468;BME280;37545;45.302;-122.946;2022-12-13T03:42:28;101431.03;;;7.79;99.17
51468;BME280;37545;45.302;-122.946;2022-12-13T03:44:57;101426.94;;;7.82;97.79
51468;BME280;37545;45.302;-122.946;2022-12-13T03:47:25;101421.94;;;7.85;97.94
51468;BME280;37545;45.302;-122.946;2022-12-13T03:49:54;101433.06;;;7.84;96.41
51468;BME280;37545;45.302;-122.946;2022-12-13T03:52:23;101420.19;;;7.84;96.74
51468;BME280;37545;45.302;-122.946;2022-12-13T03:54:53;101429.66;;;7.85;96.38
51468;BME280;37545;45.302;-122.946;2022-12-13T03:57:21;101427.19;;;7.87;95.51
51468;BME280;37545;45.302;-122.946;2022-12-13T03:59:50;101421.94;;;7.85;96.55
51468;BME280;37545;45.302;-122.946;2022-12-13T04:02:19;101432.31;;;7.87;95.68
51468;BME280;37545;45.302;-122.946;2022-12-13T04:04:47;101431.38;;;7.85;95.98
51468;BME280;37545;45.302;-122.946;2022-12-13T04:07:16;101424.59;;;7.87;95.52
51468;BME280;37545;45.302;-122.946;2022-12-13T04:09:44;101422.84;;;7.86;96.61
51468;BME280;37545;45.302;-122.946;2022-12-13T04:12:15;101430.41;;;7.83;96.11
51468;BME280;37545;45.302;-122.946;2022-12-13T04:14:56;101439.72;;;7.81;96.57
51468;BME280;37545;45.302;-122.946;2022-12-13T04:17:25;101433.78;;;7.82;96.75
51468;BME280;37545;45.302;-122.946;2022-12-13T04:19:54;101433.69;;;7.80;96.22
51468;BME280;37545;45.302;-122.946;2022-12-13T04:22:22;101429.38;;;7.79;97.04
51468;BME280;37545;45.302;-122.946;2022-12-13T04:24:51;101429.38;;;7.79;97.19
51468;BME280;37545;45.302;-122.946;2022-12-13T04:27:21;101431.72;;;7.74;96.51
51468;BME280;37545;45.302;-122.946;2022-12-13T04:29:49;101428.97;;;7.71;98.15
51468;BME280;37545;45.302;-122.946;2022-12-13T04:32:18;101433.97;;;7.68;100.00
51468;BME280;37545;45.302;-122.946;2022-12-13T04:34:47;101434.44;;;7.61;99.07
51468;BME280;37545;45.302;-122.946;2022-12-13T04:37:16;101438.28;;;7.53;98.19
51468;BME280;37545;45.302;-122.946;2022-12-13T04:39:44;101435.47;;;7.48;97.17
51468;BME280;37545;45.302;-122.946;2022-12-13T04:42:13;101434.59;;;7.48;97.62
51468;BME280;37545;45.302;-122.946;2022-12-13T04:44:43;101437.28;;;7.49;98.02
51468;BME280;37545;45.302;-122.946;2022-12-13T04:47:12;101433.09;;;7.51;97.02
51468;BME280;37545;45.302;-122.946;2022-12-13T04:49:40;101436.69;;;7.55;97.30
51468;BME280;37545;45.302;-122.946;2022-12-13T04:52:09;101431.53;;;7.55;97.31
51468;BME280;37545;45.302;-122.946;2022-12-13T04:54:38;101433.16;;;7.53;97.13
51468;BME280;37545;45.302;-122.946;2022-12-13T04:57:09;101437.66;;;7.57;96.71
51468;BME280;37545;45.302;-122.946;2022-12-13T04:59:38;101437.66;;;7.57;96.05
51468;BME280;37545;45.302;-122.946;2022-12-13T05:02:10;101440.22;;;7.57;96.25
51468;BME280;37545;45.302;-122.946;2022-12-13T05:04:38;101447.22;;;7.60;96.52
51468;BME280;37545;45.302;-122.946;2022-12-13T05:07:07;101444.66;;;7.60;94.61
51468;BME280;37545;45.302;-122.946;2022-12-13T05:09:35;101437.66;;;7.57;94.42
51468;BME280;37545;45.302;-122.946;2022-12-13T05:12:04;101437.56;;;7.55;93.96
51468;BME280;37545;45.302;-122.946;2022-12-13T05:14:33;101443.63;;;7.56;93.65
51468;BME280;37545;45.302;-122.946;2022-12-13T05:17:01;101456.25;;;7.51;93.98
51468;BME280;37545;45.302;-122.946;2022-12-13T05:19:31;101456.97;;;7.49;93.49
51468;BME280;37545;45.302;-122.946;2022-12-13T05:22:00;101457.78;;;7.48;93.14
51468;BME280;37545;45.302;-122.946;2022-12-13T05:24:29;101451.66;;;7.46;92.86
51468;BME280;37545;45.302;-122.946;2022-12-13T05:26:58;101441.75;;;7.37;92.28
51468;BME280;37545;45.302;-122.946;2022-12-13T05:29:27;101454.88;;;7.42;91.62
51468;BME280;37545;45.302;-122.946;2022-12-13T05:31:56;101458.16;;;7.39;89.15
51468;BME280;37545;45.302;-122.946;2022-12-13T05:34:25;101460.50;;;7.34;88.39
51468;BME280;37545;45.302;-122.946;2022-12-13T05:36:55;101475.16;;;7.36;90.71
51468;BME280;37545;45.302;-122.946;2022-12-13T05:39:24;101472.34;;;7.31;93.75
51468;BME280;37545;45.302;-122.946;2022-12-13T05:41:53;101473.13;;;7.30;94.67
51468;BME280;37545;45.302;-122.946;2022-12-13T05:44:22;101469.50;;;7.26;94.25
51468;BME280;37545;45.302;-122.946;2022-12-13T05:46:50;101471.03;;;7.23;94.31
51468;BME280;37545;45.302;-122.946;2022-12-13T05:49:19;101468.19;;;7.18;92.91
51468;BME280;37545;45.302;-122.946;2022-12-13T05:51:47;101476.78;;;7.19;93.10
51468;BME280;37545;45.302;-122.946;2022-12-13T05:54:18;101472.38;;;7.16;90.75
51468;BME280;37545;45.302;-122.946;2022-12-13T05:56:46;101471.59;;;7.17;89.48
51468;BME280;37545;45.302;-122.946;2022-12-13T05:59:15;101482.66;;;7.16;90.27
51468;BME280;37545;45.302;-122.946;2022-12-13T06:01:43;101474.78;;;7.13;89.68
51468;BME280;37545;45.302;-122.946;2022-12-13T06:04:12;101475.56;;;7.12;89.52
51468;BME280;37545;45.302;-122.946;2022-12-13T06:06:40;101474.59;;;7.10;89.32
51468;BME280;37545;45.302;-122.946;2022-12-13T06:09:09;101474.53;;;7.08;88.45
51468;BME280;37545;45.302;-122.946;2022-12-13T06:11:40;101471.88;;;7.07;87.59
51468;BME280;37545;45.302;-122.946;2022-12-13T06:14:16;101470.88;;;7.05;87.66
51468;BME280;37545;45.302;-122.946;2022-12-13T06:16:44;101473.31;;;7.02;88.24
51468;BME280;37545;45.302;-122.946;2022-12-13T06:19:13;101475.63;;;6.97;88.52
51468;BME280;37545;45.302;-122.946;2022-12-13T06:21:41;101474.75;;;6.97;89.09
51468;BME280;37545;45.302;-122.946;2022-12-13T06:24:10;101475.38;;;6.92;88.55
51468;BME280;37545;45.302;-122.946;2022-12-13T06:26:40;101479.44;;;6.89;89.63
51468;BME280;37545;45.302;-122.946;2022-12-13T06:29:09;101471.47;;;6.84;89.57
51468;BME280;37545;45.302;-122.946;2022-12-13T06:31:38;101473.78;;;6.80;90.15
51468;BME280;37545;45.302;-122.946;2022-12-13T06:34:07;101477.88;;;6.76;90.73
51468;BME280;37545;45.302;-122.946;2022-12-13T06:36:35;101469.47;;;6.64;90.78
51468;BME280;37545;45.302;-122.946;2022-12-13T06:39:04;101475.50;;;6.64;89.76
51468;BME280;37545;45.302;-122.946;2022-12-13T06:41:34;101474.44;;;6.61;89.56
51468;BME280;37545;45.302;-122.946;2022-12-13T06:44:04;101467.34;;;6.57;90.15
51468;BME280;37545;45.302;-122.946;2022-12-13T06:46:33;101479.22;;;6.55;90.17
51468;BME280;37545;45.302;-122.946;2022-12-13T06:49:02;101475.50;;;6.49;89.98
51468;BME280;37545;45.302;-122.946;2022-12-13T06:51:32;101471.97;;;6.47;90.39
51468;BME280;37545;45.302;-122.946;2022-12-13T06:54:01;101469.13;;;6.43;89.82
51468;BME280;37545;45.302;-122.946;2022-12-13T06:56:30;101479.25;;;6.40;89.49
51468;BME280;37545;45.302;-122.946;2022-12-13T06:58:59;101483.31;;;6.36;90.07
51468;BME280;37545;45.302;-122.946;2022-12-13T07:01:30;101486.59;;;6.34;90.74
51468;BME280;37545;45.302;-122.946;2022-12-13T07:03:58;101495.63;;;6.27;91.32
51468;BME280;37545;45.302;-122.946;2022-12-13T07:06:27;101496.22;;;6.23;91.73
51468;BME280;37545;45.302;-122.946;2022-12-13T07:08:56;101501.19;;;6.20;92.05
51468;BME280;37545;45.302;-122.946;2022-12-13T07:11:28;101493.31;;;6.17;92.30
51468;BME280;37545;45.302;-122.946;2022-12-13T07:13:58;101494.75;;;6.12;92.22
51468;BME280;37545;45.302;-122.946;2022-12-13T07:16:29;101501.25;;;6.06;93.04
51468;BME280;37545;45.302;-122.946;2022-12-13T07:18:58;101496.94;;;6.05;93.50
51468;BME280;37545;45.302;-122.946;2022-12-13T07:21:28;101497.66;;;6.03;93.80
51468;BME280;37545;45.302;-122.946;2022-12-13T07:23:57;101506.22;;;6.03;94.67
51468;BME280;37545;45.302;-122.946;2022-12-13T07:26:27;101508.81;;;6.03;94.51
51468;BME280;37545;45.302;-122.946;2022-12-13T07:28:56;101502.69;;;6.01;94.91
51468;BME280;37545;45.302;-122.946;2022-12-13T07:31:24;101507.72;;;6.00;95.31
51468;BME280;37545;45.302;-122.946;2022-12-13T07:33:55;101513.75;;;6.00;95.82
51468;BME280;37545;45.302;-122.946;2022-12-13T07:36:24;101511.19;;;6.00;95.69
51468;BME280;37545;45.302;-122.946;2022-12-13T07:38:55;101512.06;;;6.01;95.61
51468;BME280;37545;45.302;-122.946;2022-12-13T07:41:25;101513.75;;;6.00;95.13
51468;BME280;37545;45.302;-122.946;2022-12-13T07:43:54;101515.53;;;6.01;95.38
51468;BME280;37545;45.302;-122.946;2022-12-13T07:46:24;101514.53;;;5.99;94.83
51468;BME280;37545;45.302;-122.946;2022-12-13T07:48:54;101511.88;;;5.98;94.71
51468;BME280;37545;45.302;-122.946;2022-12-13T07:51:23;101523.84;;;5.97;94.69
51468;BME280;37545;45.302;-122.946;2022-12-13T07:53:52;101517.09;;;5.99;94.32
51468;BME280;37545;45.302;-122.946;2022-12-13T07:56:21;101522.16;;;5.98;94.82
51468;BME280;37545;45.302;-122.946;2022-12-13T07:58:49;101525.81;;;6.01;93.14
51468;BME280;37545;45.302;-122.946;2022-12-13T08:01:18;101507.81;;;6.01;91.61
51468;BME280;37545;45.302;-122.946;2022-12-13T08:03:47;101513.94;;;6.03;93.34
51468;BME280;37545;45.302;-122.946;2022-12-13T08:06:17;101518.25;;;6.04;94.45
51468;BME280;37545;45.302;-122.946;2022-12-13T08:08:46;101518.38;;;6.06;89.83
51468;BME280;37545;45.302;-122.946;2022-12-13T08:11:16;101514.31;;;6.10;87.93
51468;BME280;37545;45.302;-122.946;2022-12-13T08:13:45;101510.16;;;6.12;85.81
51468;BME280;37545;45.302;-122.946;2022-12-13T08:16:13;101518.22;;;6.18;85.21
51468;BME280;37545;45.302;-122.946;2022-12-13T08:18:43;101516.63;;;6.20;83.60
51468;BME280;37545;45.302;-122.946;2022-12-13T08:21:13;101519.34;;;6.23;82.96
51468;BME280;37545;45.302;-122.946;2022-12-13T08:23:43;101510.06;;;6.25;82.55
51468;BME280;37545;45.302;-122.946;2022-12-13T08:26:12;101511.91;;;6.27;82.19
51468;BME280;37545;45.302;-122.946;2022-12-13T08:28:40;101520.53;;;6.28;82.64
51468;BME280;37545;45.302;-122.946;2022-12-13T08:31:11;101517.16;;;6.29;82.94
51468;BME280;37545;45.302;-122.946;2022-12-13T08:33:39;101526.41;;;6.25;83.49
51468;BME280;37545;45.302;-122.946;2022-12-13T08:36:11;101527.06;;;6.23;83.76
51468;BME280;37545;45.302;-122.946;2022-12-13T08:38:42;101520.78;;;6.18;84.45
51468;BME280;37545;45.302;-122.946;2022-12-13T08:41:11;101524.94;;;6.16;84.23
51468;BME280;37545;45.302;-122.946;2022-12-13T08:43:40;101512.97;;;6.01;83.44
51468;BME280;37545;45.302;-122.946;2022-12-13T08:46:09;101526.69;;;6.02;83.70
51468;BME280;37545;45.302;-122.946;2022-12-13T08:48:37;101531.47;;;5.96;84.32
51468;BME280;37545;45.302;-122.946;2022-12-13T08:51:07;101538.94;;;5.93;84.27
51468;BME280;37545;45.302;-122.946;2022-12-13T08:53:37;101534.50;;;5.90;82.93
51468;BME280;37545;45.302;-122.946;2022-12-13T08:56:10;101531.75;;;5.87;82.58
51468;BME280;37545;45.302;-122.946;2022-12-13T08:58:39;101529.78;;;5.83;82.95
51468;BME280;37545;45.302;-122.946;2022-12-13T09:01:08;101538.03;;;5.77;83.50
51468;BME280;37545;45.302;-122.946;2022-12-13T09:03:37;101536.81;;;5.72;82.78
51468;BME280;37545;45.302;-122.946;2022-12-13T09:06:06;101537.34;;;5.66;82.35
51468;BME280;37545;45.302;-122.946;2022-12-13T09:08:36;101537.13;;;5.63;81.79
51468;BME280;37545;45.302;-122.946;2022-12-13T09:11:06;101539.44;;;5.59;81.22
51468;BME280;37545;45.302;-122.946;2022-12-13T09:13:36;101540.22;;;5.58;82.51
51468;BME280;37545;45.302;-122.946;2022-12-13T09:16:08;101540.81;;;5.54;80.97
51468;BME280;37545;45.302;-122.946;2022-12-13T09:18:38;101538.84;;;5.50;79.86
51468;BME280;37545;45.302;-122.946;2022-12-13T09:21:07;101544.69;;;5.47;80.62
51468;BME280;37545;45.302;-122.946;2022-12-13T09:23:36;101548.84;;;5.45;79.67
51468;BME280;37545;45.302;-122.946;2022-12-13T09:26:07;101545.91;;;5.39;79.63
51468;BME280;37545;45.302;-122.946;2022-12-13T09:28:37;101543.75;;;5.32;81.12
51468;BME280;37545;45.302;-122.946;2022-12-13T09:31:06;101551.03;;;5.25;81.87
51468;BME280;37545;45.302;-122.946;2022-12-13T09:33:35;101548.97;;;5.20;82.76
51468;BME280;37545;45.302;-122.946;2022-12-13T09:36:05;101554.19;;;5.21;81.78
51468;BME280;37545;45.302;-122.946;2022-12-13T09:38:35;101556.59;;;5.18;82.39
51468;BME280;37545;45.302;-122.946;2022-12-13T09:41:12;101548.06;;;5.19;81.73
51468;BME280;37545;45.302;-122.946;2022-12-13T09:43:47;101554.78;;;5.17;82.21
51468;BME280;37545;45.302;-122.946;2022-12-13T09:46:24;101552.84;;;5.13;83.58
51468;BME280;37545;45.302;-122.946;2022-12-13T09:48:54;101550.84;;;5.09;82.00
51468;BME280;37545;45.302;-122.946;2022-12-13T09:51:24;101552.25;;;5.04;82.34
51468;BME280;37545;45.302;-122.946;2022-12-13T09:53:53;101552.03;;;5.01;83.05
51468;BME280;37545;45.302;-122.946;2022-12-13T09:56:24;101561.41;;;5.00;83.04
51468;BME280;37545;45.302;-122.946;2022-12-13T09:58:54;101554.41;;;4.98;83.34
51468;BME280;37545;45.302;-122.946;2022-12-13T10:01:24;101556.09;;;4.97;83.86
51468;BME280;37545;45.302;-122.946;2022-12-13T10:03:54;101558.34;;;4.93;84.29
51468;BME280;37545;45.302;-122.946;2022-12-13T10:06:25;101562.38;;;4.89;83.95
51468;BME280;37545;45.302;-122.946;2022-12-13T10:08:58;101561.66;;;4.78;83.58
51468;BME280;37545;45.302;-122.946;2022-12-13T10:11:29;101567.19;;;4.71;85.00
51468;BME280;37545;45.302;-122.946;2022-12-13T10:14:02;101566.38;;;4.59;86.44
51468;BME280;37545;45.302;-122.946;2022-12-13T10:16:40;101580.78;;;4.57;87.16
51468;BME280;37545;45.302;-122.946;2022-12-13T10:19:15;101584.78;;;4.53;86.42
51468;BME280;37545;45.302;-122.946;2022-12-13T10:21:45;101581.28;;;4.51;86.31
51468;BME280;37545;45.302;-122.946;2022-12-13T10:24:15;101575.84;;;4.47;85.94
51468;BME280;37545;45.302;-122.946;2022-12-13T10:26:47;101578.97;;;4.43;86.13
51468;BME280;37545;45.302;-122.946;2022-12-13T10:29:16;101580.31;;;4.37;86.17
51468;BME280;37545;45.302;-122.946;2022-12-13T10:31:46;101582.56;;;4.33;86.69
51468;BME280;37545;45.302;-122.946;2022-12-13T10:34:20;101580.47;;;4.27;86.63
51468;BME280;37545;45.302;-122.946;2022-12-13T10:36:50;101580.16;;;4.23;86.99
51468;BME280;37545;45.302;-122.946;2022-12-13T10:39:35;101578.19;;;4.18;87.01
51468;BME280;37545;45.302;-122.946;2022-12-13T10:42:11;101577.09;;;4.15;86.78
51468;BME280;37545;45.302;-122.946;2022-12-13T10:44:48;101580.22;;;4.11;87.11
51468;BME280;37545;45.302;-122.946;2022-12-13T10:47:19;101586.03;;;4.08;86.75
51468;BME280;37545;45.302;-122.946;2022-12-13T10:49:53;101586.59;;;4.04;87.34
51468;BME280;37545;45.302;-122.946;2022-12-13T10:52:25;101584.59;;;4.00;87.55
51468;BME280;37545;45.302;-122.946;2022-12-13T10:54:55;101579.72;;;3.91;87.98
51468;BME280;37545;45.302;-122.946;2022-12-13T10:57:26;101588.53;;;3.95;88.32
51468;BME280;37545;45.302;-122.946;2022-12-13T10:59:55;101578.97;;;3.92;89.22
51468;BME280;37545;45.302;-122.946;2022-12-13T11:02:30;101583.84;;;3.89;88.92
51468;BME280;37545;45.302;-122.946;2022-12-13T11:05:11;101585.88;;;3.82;88.90
51468;BME280;37545;45.302;-122.946;2022-12-13T11:07:43;101589.91;;;3.78;88.53
51468;BME280;37545;45.302;-122.946;2022-12-13T11:10:16;101595.59;;;3.74;89.77
51468;BME280;37545;45.302;-122.946;2022-12-13T11:12:50;101586.72;;;3.69;90.55
51468;BME280;37545;45.302;-122.946;2022-12-13T11:15:23;101590.59;;;3.64;91.95
51468;BME280;37545;45.302;-122.946;2022-12-13T11:17:57;101593.50;;;3.56;93.37
51468;BME280;37545;45.302;-122.946;2022-12-13T11:20:30;101596.63;;;3.52;94.78
51468;BME280;37545;45.302;-122.946;2022-12-13T11:23:01;101593.06;;;3.50;95.75
51468;BME280;37545;45.302;-122.946;2022-12-13T11:25:36;101592.28;;;3.51;96.40
51468;BME280;37545;45.302;-122.946;2022-12-13T11:28:18;101588.19;;;3.53;96.29
51468;BME280;37545;45.302;-122.946;2022-12-13T11:31:00;101590.94;;;3.56;95.65
51468;BME280;37545;45.302;-122.946;2022-12-13T11:33:39;101594.50;;;3.59;95.95
51468;BME280;37545;45.302;-122.946;2022-12-13T11:36:19;101596.38;;;3.61;95.96
51468;BME280;37545;45.302;-122.946;2022-12-13T11:39:02;101603.38;;;3.64;94.94
51468;BME280;37545;45.302;-122.946;2022-12-13T11:41:36;101602.63;;;3.65;95.45
51468;BME280;37545;45.302;-122.946;2022-12-13T11:44:08;101596.72;;;3.66;95.48
51468;BME280;37545;45.302;-122.946;2022-12-13T11:46:39;101601.06;;;3.67;95.39
51468;BME280;37545;45.302;-122.946;2022-12-13T11:49:11;101597.72;;;3.68;95.04
51468;BME280;37545;45.302;-122.946;2022-12-13T11:51:46;101603.63;;;3.67;95.65
51468;BME280;37545;45.302;-122.946;2022-12-13T11:54:23;101608.94;;;3.70;95.50
51468;BME280;37545;45.302;-122.946;2022-12-13T11:56:56;101606.59;;;3.73;95.51
51468;BME280;37545;45.302;-122.946;2022-12-13T11:59:33;101610.97;;;3.74;95.68
51468;BME280;37545;45.302;-122.946;2022-12-13T12:02:06;101601.59;;;3.74;95.45
51468;BME280;37545;45.302;-122.946;2022-12-13T12:04:44;101604.38;;;3.77;95.17
51468;BME280;37545;45.302;-122.946;2022-12-13T12:07:15;101613.94;;;3.80;95.91
51468;BME280;37545;45.302;-122.946;2022-12-13T12:09:50;101615.50;;;3.78;95.62
51468;BME280;37545;45.302;-122.946;2022-12-13T12:12:26;101611.28;;;3.78;96.57
51468;BME280;37545;45.302;-122.946;2022-12-13T12:15:01;101618.06;;;3.78;98.08
51468;BME280;37545;45.302;-122.946;2022-12-13T12:17:33;101612.72;;;3.75;98.77
51468;BME280;37545;45.302;-122.946;2022-12-13T12:20:01;101617.84;;;3.75;99.50
51468;BME280;37545;45.302;-122.946;2022-12-13T12:22:35;101630.63;;;3.75;100.00
51468;BME280;37545;45.302;-122.946;2022-12-13T12:25:17;101608.63;;;3.65;99.46
51468;BME280;37545;45.302;-122.946;2022-12-13T12:27:50;101628.88;;;3.74;100.00
51468;BME280;37545;45.302;-122.946;2022-12-13T12:30:28;101628.97;;;3.75;100.00
51468;BME280;37545;45.302;-122.946;2022-12-13T12:33:09;101632.63;;;3.79;99.64
51468;BME280;37545;45.302;-122.946;2022-12-13T12:36:08;101636.41;;;3.84;100.00
51468;BME280;37545;45.302;-122.946;2022-12-13T12:39:11;101628.97;;;3.87;99.24
51468;BME280;37545;45.302;-122.946;2022-12-13T12:41:58;101620.59;;;3.90;99.69
51468;BME280;37545;45.302;-122.946;2022-12-13T12:44:29;101613.00;;;3.91;99.55
51468;BME280;37545;45.302;-122.946;2022-12-13T12:47:21;101625.81;;;3.91;98.26
51468;BME280;37545;45.302;-122.946;2022-12-13T12:50:12;101626.41;;;3.87;98.41
51468;BME280;37545;45.302;-122.946;2022-12-13T12:52:51;101616.94;;;3.86;98.95
51468;BME280;37545;45.302;-122.946;2022-12-13T12:55:32;101620.69;;;3.91;98.68
51468;BME280;37545;45.302;-122.946;2022-12-13T12:58:07;101618.38;;;3.94;99.19
51468;BME280;37545;45.302;-122.946;2022-12-13T13:00:47;101623.91;;;4.01;99.11
51468;BME280;37545;45.302;-122.946;2022-12-13T13:03:23;101624.13;;;4.04;98.33
51468;BME280;37545;45.302;-122.946;2022-12-13T13:05:55;101622.56;;;4.06;97.74
51468;BME280;37545;45.302;-122.946;2022-12-13T13:08:29;101626.31;;;4.11;97.37